EFKE/KEM METAR and TAF weather

Enter ICAO airport designator
Station Type Date Time Source
EFKE METAR 2021/09/16 22:20 UTC NOAA

EFKE 162220Z 07004KT 050V110 9999 OVC032 05/01 Q1026


Station Type Date Time Source
EFKE Decoded METAR 2021/09/16 22:20 UTC NOAA

Kemi, Finland (EFKE) 65-47N 024-35E
Sep 16, 2021 - 06:20 PM EDT / 2021.09.16 2220 UTC
Wind: from the ENE (070 degrees) at 5 MPH (4 KT) (direction variable):0
Visibility: greater than 7 mile(s):0
Sky conditions: overcast
Temperature: 41 F (5 C)
Dew Point: 33 F (1 C)
Relative Humidity: 75%
Pressure (altimeter): 30.30 in. Hg (1026 hPa)
ob: EFKE 162220Z 07004KT 050V110 9999 OVC032 05/01 Q1026
cycle: 22

Station Type Date Time Source
EFKE TAF 2015/01/12 15:42 UTC NOAA

TAF EFKE 121433Z 1215/1312 03006KT CAVOK
BECMG 1300/1302 9999 BKN015
FM130400 07008KT 9999 SCT014 BKN018
TEMPO 1304/1312 7000 -SN

Example: see airport list